Time;durP1;ratioP1;P1;durP2;ratioP2;P2;SDS_P1;SDS_P2;PMS_P1;PMS_P2;Temp;Humidity;BMP_temperature;BMP_pressure;BME280_temperature;BME280_humidity;BME280_pressure;Samples;Min_cycle;Max_cycle;Signal;HPM_P1;HPM_P2
2022/04/11 00:02:09;;;;;;;12.40;1.55;;;;;;;5.51;100.00;100880.81;4935522;29;20039;-78
2022/04/11 00:04:34;;;;;;;8.13;1.48;;;;;;;5.47;100.00;100885.66;4923807;29;20031;-79
2022/04/11 00:07:00;;;;;;;10.73;1.15;;;;;;;5.54;100.00;100893.84;4957064;28;20053;-78
2022/04/11 00:09:25;;;;;;;8.43;1.20;;;;;;;5.57;100.00;100891.66;4936777;29;20365;-78
2022/04/11 00:11:51;;;;;;;9.43;1.20;;;;;;;5.64;100.00;100899.84;4925808;29;20611;-79
2022/04/11 00:14:16;;;;;;;16.10;2.20;;;;;;;5.63;100.00;100907.03;4926199;29;20235;-77
2022/04/11 00:16:42;;;;;;;9.45;1.40;;;;;;;5.57;100.00;100890.84;4939294;29;20027;-78
2022/04/11 00:19:08;;;;;;;11.30;1.10;;;;;;;5.55;100.00;100888.31;4934343;29;20388;-78
2022/04/11 00:21:34;;;;;;;9.40;1.50;;;;;;;5.57;100.00;100899.66;4921411;29;20075;-78
2022/04/11 00:24:02;;;;;;;13.68;1.40;;;;;;;5.53;100.00;100890.34;4934027;29;20059;-78
2022/04/11 00:26:27;;;;;;;12.15;1.50;;;;;;;5.67;100.00;100901.38;4920032;29;20046;-78
2022/04/11 00:28:53;;;;;;;14.82;1.60;;;;;;;5.65;100.00;100905.00;4933222;29;20027;-78
2022/04/11 00:31:19;;;;;;;8.55;1.27;;;;;;;5.54;100.00;100878.66;4934141;29;20079;-78
2022/04/11 00:33:44;;;;;;;15.27;2.05;;;;;;;5.65;100.00;100905.00;4937036;29;20080;-79
2022/04/11 00:36:10;;;;;;;10.88;1.63;;;;;;;5.65;100.00;100907.69;4934473;29;20438;-78
2022/04/11 00:38:35;;;;;;;12.95;1.88;;;;;;;5.53;100.00;100890.34;4955361;28;20039;-79
2022/04/11 00:41:00;;;;;;;13.85;2.20;;;;;;;5.58;100.00;100897.84;4937871;29;20151;-78
2022/04/11 00:43:44;;;;;;;13.77;1.70;;;;;;;5.56;100.00;100902.50;4918233;29;20740;-78
2022/04/11 00:46:09;;;;;;;17.35;1.65;;;;;;;5.50;100.00;100901.34;4932348;29;20088;-78
2022/04/11 00:48:36;;;;;;;16.25;1.98;;;;;;;5.42;100.00;100898.63;4933495;29;20510;-78
2022/04/11 00:51:07;;;;;;;9.30;1.63;;;;;;;5.48;100.00;100911.31;4936103;29;20094;-78
2022/04/11 00:53:34;;;;;;;11.85;1.73;;;;;;;5.37;100.00;100896.47;4935460;29;20038;-79
2022/04/11 00:56:01;;;;;;;11.77;1.50;;;;;;;5.45;100.00;100914.31;4939531;29;20058;-79
2022/04/11 00:58:30;;;;;;;14.10;1.65;;;;;;;5.25;100.00;100902.25;4934596;29;20110;-78
2022/04/11 01:00:56;;;;;;;14.52;1.58;;;;;;;5.32;100.00;100892.59;4936119;29;20019;-78
2022/04/11 01:03:22;;;;;;;14.52;2.15;;;;;;;5.36;100.00;100905.47;4955370;28;20027;-78
2022/04/11 01:05:47;;;;;;;9.70;1.20;;;;;;;5.40;100.00;100911.31;4933262;29;20035;-78
2022/04/11 01:08:12;;;;;;;11.25;1.55;;;;;;;5.35;100.00;100913.63;4934583;29;20111;-78
2022/04/11 01:10:38;;;;;;;13.65;1.38;;;;;;;5.18;100.00;100881.56;4935165;29;20354;-78
2022/04/11 01:13:03;;;;;;;10.20;1.33;;;;;;;5.32;100.00;100903.28;4935757;29;20031;-78
2022/04/11 01:15:29;;;;;;;9.27;1.48;;;;;;;5.27;100.00;100889.59;4935432;29;20036;-79
2022/04/11 01:17:54;;;;;;;9.35;1.35;;;;;;;5.34;100.00;100912.78;4933314;29;20482;-78
2022/04/11 01:20:20;;;;;;;10.18;1.70;;;;;;;5.36;100.00;100923.28;4935253;29;20048;-78
2022/04/11 01:22:47;;;;;;;8.43;1.60;;;;;;;5.24;100.00;100904.09;4917850;29;20127;-78
2022/04/11 01:25:15;;;;;;;10.20;1.48;;;;;;;5.33;100.00;100923.63;4935116;29;20043;-78
2022/04/11 01:27:41;;;;;;;12.10;1.33;;;;;;;5.34;100.00;100925.31;4937553;29;20027;-78
2022/04/11 01:30:09;;;;;;;12.20;1.45;;;;;;;5.27;100.00;100921.63;4938510;29;20418;-78
2022/04/11 01:32:36;;;;;;;16.55;1.65;;;;;;;5.31;100.00;100930.97;4936777;29;20118;-78
2022/04/11 01:35:03;;;;;;;8.55;1.38;;;;;;;5.26;100.00;100927.94;4936805;29;20027;-78
2022/04/11 01:37:28;;;;;;;11.23;1.45;;;;;;;5.25;100.00;100939.59;4939027;29;20043;-78
2022/04/11 01:39:54;;;;;;;14.38;1.63;;;;;;;5.26;100.00;100941.28;4937871;29;20110;-78
2022/04/11 01:42:19;;;;;;;15.18;2.22;;;;;;;5.24;100.00;100943.28;4939299;29;20027;-78
2022/04/11 01:44:45;;;;;;;10.45;1.70;;;;;;;5.19;100.00;100935.75;4936726;29;20054;-78
2022/04/11 01:47:10;;;;;;;11.18;1.52;;;;;;;5.09;100.00;100921.69;4935731;29;20349;-79
2022/04/11 01:49:35;;;;;;;9.20;1.55;;;;;;;5.10;100.00;100923.38;4940067;29;20090;-78
2022/04/11 01:52:01;;;;;;;12.93;1.67;;;;;;;5.17;100.00;100937.75;4937684;29;20070;-78
2022/04/11 01:54:26;;;;;;;12.70;1.52;;;;;;;5.09;100.00;100919.88;4938823;29;20047;-78
2022/04/11 01:56:52;;;;;;;11.65;1.38;;;;;;;5.23;100.00;100944.25;4937976;29;20459;-78
2022/04/11 01:59:17;;;;;;;6.82;1.27;;;;;;;5.08;100.00;100928.03;4936990;29;20056;-78
2022/04/11 02:01:43;;;;;;;13.32;1.52;;;;;;;5.21;100.00;100939.09;4936638;29;20024;-78
2022/04/11 02:04:10;;;;;;;13.90;1.73;;;;;;;5.22;100.00;100943.44;4938068;29;20425;-79
2022/04/11 02:06:36;;;;;;;11.63;1.65;;;;;;;5.31;100.00;100944.31;4939041;29;20031;-78
2022/04/11 02:09:02;;;;;;;19.80;2.05;;;;;;;5.29;100.00;100941.78;4940619;29;20479;-79
2022/04/11 02:11:27;;;;;;;13.70;1.67;;;;;;;5.41;100.00;100951.16;4938557;29;20059;-78
2022/04/11 02:13:52;;;;;;;13.68;2.17;;;;;;;5.34;100.00;100935.97;4936897;29;20031;-78
2022/04/11 02:16:18;;;;;;;10.88;1.75;;;;;;;5.46;100.00;100948.00;4938711;29;20517;-77
2022/04/11 02:18:43;;;;;;;10.82;1.60;;;;;;;5.50;100.00;100948.53;4937560;29;20027;-78
2022/04/11 02:21:09;;;;;;;12.50;1.42;;;;;;;5.44;100.00;100942.00;4939615;29;20034;-78
2022/04/11 02:23:34;;;;;;;8.98;1.90;;;;;;;5.50;100.00;100949.38;4937006;29;20103;-78
2022/04/11 02:25:59;;;;;;;9.32;1.60;;;;;;;5.59;100.00;100967.06;4937261;29;20446;-78
2022/04/11 02:28:25;;;;;;;12.60;1.60;;;;;;;5.56;100.00;100958.53;4938045;29;20024;-78
2022/04/11 02:30:51;;;;;;;12.95;1.92;;;;;;;5.61;100.00;100970.41;4937136;29;20063;-78
2022/04/11 02:33:16;;;;;;;9.98;1.38;;;;;;;5.60;100.00;100974.09;4935245;29;20112;-78
2022/04/11 02:35:42;;;;;;;10.23;1.40;;;;;;;5.62;100.00;100969.41;4938225;29;20043;-77
2022/04/11 02:38:07;;;;;;;12.73;1.95;;;;;;;5.65;100.00;100981.59;4920245;29;20452;-78
2022/04/11 02:40:33;;;;;;;9.73;1.60;;;;;;;5.62;100.00;100963.22;4937388;29;20370;-77
2022/04/11 02:42:58;;;;;;;9.70;1.88;;;;;;;5.64;100.00;100972.75;4937723;29;20031;-78
2022/04/11 02:45:24;;;;;;;11.32;1.75;;;;;;;5.52;100.00;100955.38;4919451;29;20370;-78
2022/04/11 02:47:50;;;;;;;8.35;1.30;;;;;;;5.65;100.00;100987.78;4936333;29;20067;-77
2022/04/11 02:50:15;;;;;;;8.75;1.50;;;;;;;5.68;100.00;100977.78;4937872;29;20032;-78
2022/04/11 02:52:40;;;;;;;7.97;1.52;;;;;;;5.69;100.00;100977.59;4933710;29;20039;-78
2022/04/11 02:55:07;;;;;;;12.45;1.50;;;;;;;5.57;100.00;100963.75;4925589;29;20032;-78
2022/04/11 02:57:32;;;;;;;10.85;1.70;;;;;;;5.70;100.00;100981.97;4936994;29;20035;-77
2022/04/11 02:59:58;;;;;;;7.30;1.27;;;;;;;5.61;100.00;100973.09;4925942;29;20023;-78
2022/04/11 03:02:25;;;;;;;10.40;1.75;;;;;;;5.67;100.00;100986.78;4921570;29;20047;-78
2022/04/11 03:04:51;;;;;;;8.15;1.20;;;;;;;5.63;100.00;100971.09;4953155;29;20042;-78
2022/04/11 03:07:16;;;;;;;9.63;1.88;;;;;;;5.71;100.00;100983.63;4939864;29;20114;-78
2022/04/11 03:09:41;;;;;;;10.23;1.60;;;;;;;5.68;100.00;100983.94;4957580;28;20456;-78
2022/04/11 03:12:08;;;;;;;10.13;1.58;;;;;;;5.69;100.00;100990.13;4953924;29;20465;-78
2022/04/11 03:14:33;;;;;;;10.95;1.58;;;;;;;5.69;100.00;100993.63;4937768;29;20031;-78
2022/04/11 03:16:58;;;;;;;7.72;0.98;;;;;;;5.71;100.00;100998.81;4940959;29;20627;-78
2022/04/11 03:19:25;;;;;;;16.23;1.23;;;;;;;5.72;100.00;100995.13;4940547;29;20074;-78
2022/04/11 03:21:51;;;;;;;8.38;1.23;;;;;;;5.67;100.00;100984.13;4935517;29;20028;-78
2022/04/11 03:24:16;;;;;;;10.23;1.38;;;;;;;5.70;100.00;100992.63;4937518;29;20127;-77
2022/04/11 03:26:41;;;;;;;7.35;1.48;;;;;;;5.59;100.00;100987.59;4901784;29;20028;-78
2022/04/11 03:29:07;;;;;;;9.93;1.00;;;;;;;5.51;100.00;100971.56;4937462;29;20410;-78
2022/04/11 03:31:32;;;;;;;9.05;1.10;;;;;;;5.70;100.00;101000.66;4936688;29;20549;-78
2022/04/11 03:33:58;;;;;;;11.10;1.50;;;;;;;5.66;100.00;101007.28;4938445;29;20103;-78
2022/04/11 03:36:24;;;;;;;9.35;1.00;;;;;;;5.60;100.00;100995.44;4935398;29;20038;-78
2022/04/11 03:38:50;;;;;;;10.50;1.42;;;;;;;5.55;100.00;100979.06;4917999;29;20454;-78
2022/04/11 03:41:15;;;;;;;6.00;1.27;;;;;;;5.65;100.00;101009.13;4917407;29;20028;-78
2022/04/11 03:43:41;;;;;;;8.90;1.20;;;;;;;5.64;100.00;101012.81;4918901;29;20038;-78
2022/04/11 03:46:06;;;;;;;12.30;1.42;;;;;;;5.68;100.00;101015.16;4918158;29;20079;-78
2022/04/11 03:48:31;;;;;;;6.53;1.10;;;;;;;5.55;100.00;100994.25;4930033;29;20031;-78
2022/04/11 03:50:57;;;;;;;7.25;1.35;;;;;;;5.64;100.00;101014.66;4934146;29;20477;-78
2022/04/11 03:53:22;;;;;;;10.60;1.38;;;;;;;5.53;100.00;100997.09;4912992;29;20754;-78
2022/04/11 03:55:47;;;;;;;7.63;1.40;;;;;;;5.52;100.00;101006.06;4927512;29;20371;-78
2022/04/11 03:58:13;;;;;;;6.55;1.17;;;;;;;5.53;100.00;101002.44;4915575;29;20028;-78
2022/04/11 04:00:38;;;;;;;6.43;1.00;;;;;;;5.49;100.00;100992.22;4933872;29;20032;-78
2022/04/11 04:03:14;;;;;;;5.38;1.00;;;;;;;5.64;100.00;101028.81;4931700;29;20068;-78
2022/04/11 04:05:40;;;;;;;4.60;0.90;;;;;;;5.66;100.00;101015.28;4920399;29;20028;-78
2022/04/11 04:08:06;;;;;;;8.68;1.10;;;;;;;5.67;100.00;101029.50;4935752;29;20094;-78
2022/04/11 04:10:32;;;;;;;7.38;1.60;;;;;;;5.69;100.00;101028.31;4921273;29;20115;-78
2022/04/11 04:12:58;;;;;;;7.43;1.20;;;;;;;5.69;100.00;101025.66;4938772;29;20055;-78
2022/04/11 04:15:24;;;;;;;7.15;1.00;;;;;;;5.65;100.00;101030.47;4935689;29;20587;-78
2022/04/11 04:17:52;;;;;;;6.13;1.50;;;;;;;5.58;100.00;101018.78;4935537;29;20093;-78
2022/04/11 04:20:17;;;;;;;7.03;1.20;;;;;;;5.69;100.00;101038.16;4931121;29;20051;-78
2022/04/11 04:22:43;;;;;;;6.55;1.30;;;;;;;5.70;100.00;101040.69;4916518;29;20062;-78
2022/04/11 04:25:08;;;;;;;11.48;1.77;;;;;;;5.67;100.00;101034.84;4917603;29;20359;-78
2022/04/11 04:27:34;;;;;;;8.63;0.90;;;;;;;5.74;100.00;101036.69;4934273;29;20454;-79
2022/04/11 04:30:00;;;;;;;13.02;1.33;;;;;;;6.16;100.00;101061.69;4924986;29;20032;-79
2022/04/11 04:32:26;;;;;;;11.82;1.38;;;;;;;6.35;100.00;101040.03;4937416;29;20031;-79
2022/04/11 04:34:51;;;;;;;8.18;1.23;;;;;;;6.51;100.00;101029.34;4937663;29;20034;-80
2022/04/11 04:37:17;;;;;;;10.60;1.40;;;;;;;6.73;100.00;101059.09;4935796;29;20031;-80
2022/04/11 04:39:42;;;;;;;12.50;1.20;;;;;;;6.77;100.00;101044.38;4932750;29;20131;-80
2022/04/11 04:42:08;;;;;;;9.45;1.40;;;;;;;6.97;100.00;101060.91;4930152;29;20046;-78
2022/04/11 04:44:33;;;;;;;8.48;1.27;;;;;;;6.96;100.00;101060.06;4929468;29;20027;-78
2022/04/11 04:46:58;;;;;;;7.65;1.20;;;;;;;7.02;98.89;101058.56;4929325;29;20040;-79
2022/04/11 04:49:24;;;;;;;6.45;1.27;;;;;;;7.00;96.69;101049.88;4926971;29;20087;-79
2022/04/11 04:51:49;;;;;;;9.77;1.33;;;;;;;7.35;94.62;101072.72;4928747;29;20130;-78
2022/04/11 04:54:14;;;;;;;11.63;1.77;;;;;;;7.42;93.34;101068.34;4927012;29;20027;-79
2022/04/11 04:56:40;;;;;;;12.77;2.00;;;;;;;7.41;92.38;101065.81;4930841;29;20047;-78
2022/04/11 04:59:05;;;;;;;11.70;1.33;;;;;;;7.57;92.50;101072.97;4934814;29;20036;-78
2022/04/11 05:01:31;;;;;;;10.63;1.55;;;;;;;7.73;92.17;101078.28;4919179;29;20028;-79
2022/04/11 05:03:56;;;;;;;5.47;1.08;;;;;;;7.86;91.13;101078.56;4927166;29;20059;-79
2022/04/11 05:06:22;;;;;;;8.50;1.55;;;;;;;7.94;90.56;101081.19;4935508;28;20055;-79
2022/04/11 05:11:24;;;;;;;10.93;1.30;;;;;;;8.20;89.62;101088.09;5063477;23;20052;-80
2022/04/11 05:13:49;;;;;;;8.10;1.38;;;;;;;6.92;89.29;100879.53;4966107;23;20066;-81
2022/04/11 05:16:18;;;;;;;8.40;1.70;;;;;;;8.33;88.63;101096.38;4945527;29;20039;-79
2022/04/11 05:18:44;;;;;;;9.95;1.50;;;;;;;7.00;88.22;100889.34;5179198;23;20093;-81
2022/04/11 05:21:10;;;;;;;9.13;1.02;;;;;;;7.29;87.21;100910.97;4943204;28;20044;-83
2022/04/11 05:23:36;;;;;;;7.65;1.52;;;;;;;8.37;87.56;101097.69;4981653;23;20060;-83
2022/04/11 05:26:02;;;;;;;5.85;0.90;;;;;;;8.46;86.31;101101.19;4947718;29;20538;-83
2022/04/11 05:31:02;;;;;;;7.85;1.00;;;;;;;8.46;83.85;101120.78;4939426;28;20068;-82
2022/04/11 05:36:30;;;;;;;6.85;0.90;;;;;;;8.27;79.98;101115.84;5269051;23;20032;-83
2022/04/11 05:38:56;;;;;;;4.15;1.40;;;;;;;5.91;82.11;100847.97;5090806;23;20031;-83
2022/04/11 05:41:22;;;;;;;5.60;0.80;;;;;;;6.04;86.45;101011.25;4955390;28;20070;-81
2022/04/11 05:43:47;;;;;;;6.25;0.85;;;;;;;6.05;87.76;101023.63;4936425;29;20382;-81
2022/04/11 05:46:12;;;;;;;5.75;1.05;;;;;;;6.35;87.87;101110.34;4943222;29;20067;-81
2022/04/11 05:48:40;;;;;;;6.88;0.90;;;;;;;6.43;87.84;101120.22;4914321;29;20043;-79
2022/04/11 05:51:05;;;;;;;5.10;0.73;;;;;;;6.42;87.65;101126.56;4914194;29;20035;-80
2022/04/11 05:53:31;;;;;;;6.07;0.90;;;;;;;6.45;86.96;101120.88;4932354;29;20370;-79
2022/04/11 05:55:56;;;;;;;5.88;1.02;;;;;;;6.44;86.24;101116.56;4934559;29;20398;-81
2022/04/11 05:58:21;;;;;;;8.68;1.13;;;;;;;6.46;85.60;101122.59;4934029;29;20056;-80
2022/04/11 06:00:47;;;;;;;6.22;1.60;;;;;;;6.49;85.60;101134.75;4937563;29;20094;-80
2022/04/11 06:03:12;;;;;;;5.45;1.00;;;;;;;6.51;85.56;101128.25;4935317;29;20071;-80
2022/04/11 06:05:37;;;;;;;6.30;1.13;;;;;;;6.52;85.36;101119.25;4932969;29;20036;-81
2022/04/11 06:08:03;;;;;;;6.57;1.10;;;;;;;6.45;84.70;101115.53;4938912;28;20063;-80
2022/04/11 06:10:28;;;;;;;5.18;1.08;;;;;;;6.53;84.39;101133.44;4937464;29;20058;-80
2022/04/11 06:12:54;;;;;;;7.70;1.02;;;;;;;6.55;83.40;101131.44;4935081;29;20102;-80
2022/04/11 06:15:19;;;;;;;4.63;0.70;;;;;;;6.54;81.86;101141.28;4937180;29;20027;-79
2022/04/11 06:17:44;;;;;;;9.07;1.17;;;;;;;6.60;82.71;101147.84;4917808;29;20480;-79
2022/04/11 06:20:11;;;;;;;7.65;1.00;;;;;;;6.39;82.03;101126.91;4932232;29;20087;-79
2022/04/11 06:22:38;;;;;;;4.25;1.00;;;;;;;6.61;82.99;101152.16;4929690;29;20042;-80
2022/04/11 06:25:05;;;;;;;5.15;0.95;;;;;;;6.51;83.31;101140.78;4928583;29;20031;-79
2022/04/11 06:27:32;;;;;;;7.80;1.00;;;;;;;6.59;83.77;101155.03;4933667;29;20032;-79
2022/04/11 06:29:57;;;;;;;7.22;1.30;;;;;;;6.61;83.48;101160.19;4928806;29;20123;-79
2022/04/11 06:32:28;;;;;;;4.45;0.90;;;;;;;6.63;83.70;101154.69;4933628;29;20413;-79
2022/04/11 06:34:54;;;;;;;4.22;1.17;;;;;;;6.55;82.65;101147.47;4937268;29;20036;-80
2022/04/11 06:37:21;;;;;;;8.50;1.60;;;;;;;6.65;83.09;101158.03;4933798;29;20059;-79
2022/04/11 06:39:46;;;;;;;5.22;0.80;;;;;;;6.20;82.42;101097.81;4934330;29;20035;-79
2022/04/11 06:42:13;;;;;;;4.78;0.95;;;;;;;6.59;81.17;101167.56;4941608;29;20055;-80
2022/04/11 06:44:38;;;;;;;6.72;1.00;;;;;;;6.67;83.01;101169.41;4936737;29;20119;-79
2022/04/11 06:47:04;;;;;;;8.10;1.05;;;;;;;6.63;82.52;101166.22;4933715;29;20118;-79
2022/04/11 06:49:30;;;;;;;8.05;1.15;;;;;;;6.59;82.90;101187.09;4932827;29;20031;-79
2022/04/11 06:51:55;;;;;;;3.75;1.08;;;;;;;6.57;84.00;101174.91;4937392;29;20465;-80
2022/04/11 06:54:21;;;;;;;7.38;1.13;;;;;;;6.53;83.70;101176.22;4936408;29;20048;-80
2022/04/11 06:56:47;;;;;;;4.75;1.10;;;;;;;6.56;82.07;101155.34;4929806;29;20036;-80
2022/04/11 06:59:12;;;;;;;4.35;0.95;;;;;;;6.56;80.00;101175.91;4935679;29;20119;-80
2022/04/11 07:01:37;;;;;;;4.88;1.23;;;;;;;6.66;77.99;101165.06;4941205;29;20103;-80
2022/04/11 07:04:03;;;;;;;7.05;1.15;;;;;;;6.89;79.08;101186.63;4935068;29;20115;-80
2022/04/11 07:06:28;;;;;;;5.22;1.10;;;;;;;6.91;80.50;101193.50;4932592;29;20024;-80
2022/04/11 07:08:54;;;;;;;5.63;1.00;;;;;;;6.86;80.35;101201.19;4934400;29;20135;-80
2022/04/11 07:11:19;;;;;;;7.40;1.30;;;;;;;6.80;79.09;101197.34;4939298;29;20042;-80
2022/04/11 07:13:45;;;;;;;5.63;1.10;;;;;;;6.80;77.46;101204.53;4918983;29;20024;-80
2022/04/11 07:16:11;;;;;;;5.03;0.63;;;;;;;6.78;76.26;101185.94;4935942;29;20032;-81
2022/04/11 07:18:36;;;;;;;3.50;0.63;;;;;;;6.88;77.55;101188.47;4932716;29;20359;-80
2022/04/11 07:21:02;;;;;;;3.20;0.80;;;;;;;7.03;75.76;101205.56;4935029;29;20043;-81
2022/04/11 07:23:27;;;;;;;5.75;1.05;;;;;;;7.01;74.23;101198.69;4936354;29;20042;-80
2022/04/11 07:25:53;;;;;;;5.57;0.73;;;;;;;6.91;71.84;101198.84;4932473;29;20023;-80
2022/04/11 07:28:18;;;;;;;3.72;0.80;;;;;;;6.89;71.85;101203.53;4940342;28;20045;-80
2022/04/11 07:30:43;;;;;;;4.13;0.60;;;;;;;6.89;71.68;101213.38;4934460;29;20035;-81
2022/04/11 07:33:09;;;;;;;5.10;0.88;;;;;;;6.90;72.03;101202.53;4939125;29;20087;-80
2022/04/11 07:35:35;;;;;;;4.03;0.90;;;;;;;6.86;72.22;101208.38;4936283;29;20027;-80
2022/04/11 07:38:01;;;;;;;5.35;1.23;;;;;;;6.79;71.50;101208.22;4939343;29;20117;-80
2022/04/11 07:40:30;;;;;;;4.15;0.82;;;;;;;6.95;70.56;101216.22;4928075;29;20041;-80
2022/04/11 07:42:56;;;;;;;4.68;0.90;;;;;;;6.91;70.62;101214.91;4938541;29;20074;-80
2022/04/11 07:45:22;;;;;;;3.67;0.68;;;;;;;6.93;67.78;101226.28;4929947;29;20438;-81
2022/04/11 07:47:47;;;;;;;4.28;0.98;;;;;;;6.91;68.68;101222.09;4938787;29;20040;-79
2022/04/11 07:50:13;;;;;;;4.28;1.00;;;;;;;6.74;65.82;101192.63;4919118;29;20040;-80
2022/04/11 07:52:40;;;;;;;4.55;1.50;;;;;;;6.82;66.98;101223.91;4934726;29;20027;-80
2022/04/11 07:55:08;;;;;;;4.40;0.90;;;;;;;6.77;65.85;101223.56;4938778;29;20131;-80
2022/04/11 07:57:33;;;;;;;3.97;0.93;;;;;;;6.78;66.56;101228.75;4935987;29;20036;-80
2022/04/11 07:59:58;;;;;;;4.03;0.80;;;;;;;6.91;67.97;101232.78;4932299;29;20094;-80
2022/04/11 08:02:27;;;;;;;4.40;0.85;;;;;;;6.85;67.96;101212.03;4932384;29;20597;-80
2022/04/11 08:04:53;;;;;;;5.05;0.93;;;;;;;7.07;71.04;101244.34;4916407;29;20028;-80
2022/04/11 08:07:21;;;;;;;4.13;0.73;;;;;;;6.86;70.68;101216.41;4930133;29;20043;-80
2022/04/11 08:09:48;;;;;;;5.47;1.02;;;;;;;6.92;68.81;101246.00;4923260;29;20040;-79
2022/04/11 08:12:17;;;;;;;5.55;1.25;;;;;;;6.96;70.35;101239.31;4933783;29;20110;-80
2022/04/11 08:14:42;;;;;;;5.25;1.20;;;;;;;6.94;73.09;101244.00;4933648;29;20114;-79
2022/04/11 08:17:08;;;;;;;5.22;0.93;;;;;;;6.90;69.69;101245.34;4937019;29;20118;-80
2022/04/11 08:19:33;;;;;;;5.47;0.90;;;;;;;6.84;69.51;101229.94;4935578;29;20127;-80
2022/04/11 08:21:59;;;;;;;6.80;1.00;;;;;;;6.86;69.68;101240.50;4935096;29;20031;-79
2022/04/11 08:24:24;;;;;;;4.50;1.08;;;;;;;6.72;68.03;101244.59;4920399;29;20027;-80
2022/04/11 08:26:50;;;;;;;4.80;1.10;;;;;;;6.79;70.32;101248.34;4934185;29;20055;-80
2022/04/11 08:29:17;;;;;;;4.82;1.40;;;;;;;6.82;71.91;101245.31;4935466;29;20074;-80
2022/04/11 08:31:43;;;;;;;4.60;0.90;;;;;;;6.68;71.96;101245.94;4936285;29;20028;-80
2022/04/11 08:34:08;;;;;;;6.10;1.30;;;;;;;6.88;72.72;101257.19;4936636;29;20090;-79
2022/04/11 08:36:34;;;;;;;6.10;1.00;;;;;;;6.78;72.53;101254.66;4935210;29;20394;-80
2022/04/11 08:38:59;;;;;;;7.53;1.75;;;;;;;6.72;72.10;101269.53;4933251;29;20456;-80
2022/04/11 08:41:29;;;;;;;6.38;1.30;;;;;;;6.79;70.24;101270.56;4933310;29;20407;-79
2022/04/11 08:43:55;;;;;;;5.75;0.88;;;;;;;6.84;72.70;101270.06;4935539;29;20026;-80
2022/04/11 08:46:21;;;;;;;4.38;0.80;;;;;;;6.85;70.55;101258.34;4935296;29;20032;-79
2022/04/11 08:48:47;;;;;;;5.68;0.90;;;;;;;6.71;68.99;101248.28;4928048;29;20043;-81
2022/04/11 08:51:13;;;;;;;6.55;1.92;;;;;;;6.89;72.88;101281.13;4957498;28;20039;-79
2022/04/11 08:53:38;;;;;;;4.15;1.35;;;;;;;6.86;72.05;101276.09;4924319;28;20042;-80
2022/04/11 08:56:04;;;;;;;5.50;1.00;;;;;;;6.52;71.81;101218.19;4929926;29;20043;-78
2022/04/11 08:58:29;;;;;;;7.85;1.65;;;;;;;6.70;70.08;101274.19;4947562;29;20023;-79
2022/04/11 09:00:55;;;;;;;4.22;1.10;;;;;;;6.80;69.56;101274.91;4935307;29;20129;-79
2022/04/11 09:03:20;;;;;;;7.13;1.30;;;;;;;6.83;70.91;101266.56;4934715;29;20027;-79
2022/04/11 09:06:02;;;;;;;5.32;1.33;;;;;;;6.74;69.24;101283.56;4935558;29;20110;-79
2022/04/11 09:08:38;;;;;;;8.73;1.30;;;;;;;6.68;71.67;101260.16;4936247;29;20035;-78
2022/04/11 09:11:03;;;;;;;4.70;0.90;;;;;;;6.75;68.85;101284.41;4932042;29;20446;-80
2022/04/11 09:13:46;;;;;;;3.92;1.23;;;;;;;6.78;70.00;101278.72;4936186;28;20037;-79
2022/04/11 09:16:11;;;;;;;5.88;1.10;;;;;;;6.76;72.14;101284.25;4932983;29;20027;-80
2022/04/11 09:18:53;;;;;;;3.47;1.00;;;;;;;6.66;71.57;101272.84;4962667;28;20366;-80
2022/04/11 09:21:20;;;;;;;6.88;1.42;;;;;;;6.69;69.99;101280.56;4941073;28;20115;-80
2022/04/11 09:23:47;;;;;;;5.00;1.10;;;;;;;6.73;69.83;101287.25;4937914;29;20032;-81
2022/04/11 09:26:20;;;;;;;7.32;1.42;;;;;;;6.77;70.53;101285.09;4936513;29;20087;-79
2022/04/11 09:29:07;;;;;;;5.55;1.20;;;;;;;6.76;69.58;101291.44;4935594;29;20023;-80
2022/04/11 09:31:33;;;;;;;6.95;1.40;;;;;;;6.71;70.01;101285.72;4933412;29;20465;-80
2022/04/11 09:34:12;;;;;;;8.50;1.50;;;;;;;6.81;70.72;101297.13;4916248;29;20043;-80
2022/04/11 09:36:57;;;;;;;8.95;1.40;;;;;;;6.78;70.90;101297.44;4916578;29;20099;-80
2022/04/11 09:39:28;;;;;;;4.57;1.00;;;;;;;6.68;71.00;101280.69;4926865;29;20047;-80
2022/04/11 09:41:54;;;;;;;9.65;1.50;;;;;;;6.67;69.65;101287.06;4934735;29;20509;-79
2022/04/11 09:44:30;;;;;;;5.47;1.30;;;;;;;6.87;71.74;101301.84;4933894;29;20035;-80
2022/04/11 09:47:01;;;;;;;8.27;1.55;;;;;;;6.88;71.91;101295.47;4938798;29;20058;-80
2022/04/11 09:49:27;;;;;;;7.70;1.20;;;;;;;6.97;70.59;101312.41;4939469;29;20032;-80
2022/04/11 09:52:13;;;;;;;5.95;1.20;;;;;;;6.99;70.20;101299.72;4939148;29;20423;-80
2022/04/11 09:54:44;;;;;;;7.00;1.63;;;;;;;6.95;68.01;101309.88;4940380;29;20071;-79
2022/04/11 09:57:11;;;;;;;5.07;1.20;;;;;;;7.09;67.26;101320.97;4937008;29;20066;-79
2022/04/11 09:59:39;;;;;;;5.93;1.30;;;;;;;7.04;66.13;101311.56;4940548;29;20756;-80
2022/04/11 10:02:05;;;;;;;5.07;1.15;;;;;;;7.09;65.18;101311.09;4943079;29;20103;-80
2022/04/11 10:04:31;;;;;;;5.43;1.23;;;;;;;7.03;65.92;101317.09;4944654;29;20097;-79
2022/04/11 10:06:56;;;;;;;6.95;1.20;;;;;;;6.68;66.10;101265.50;4938629;29;20489;-79
2022/04/11 10:09:23;;;;;;;4.70;1.17;;;;;;;7.16;64.40;101309.44;4919347;29;20047;-80
2022/04/11 10:11:51;;;;;;;6.93;1.20;;;;;;;7.25;64.12;101326.34;4919509;29;20634;-80
2022/04/11 10:14:23;;;;;;;4.85;1.30;;;;;;;6.90;63.81;101289.97;4925182;29;20031;-80
2022/04/11 10:16:51;;;;;;;3.10;1.10;;;;;;;7.17;62.17;101337.03;4942162;29;20461;-80
2022/04/11 10:19:22;;;;;;;6.25;1.40;;;;;;;7.04;62.58;101337.50;4940417;29;20031;-80
2022/04/11 10:21:49;;;;;;;7.40;1.48;;;;;;;6.96;63.24;101318.75;4939143;29;20102;-80
2022/04/11 10:24:38;;;;;;;5.13;1.20;;;;;;;6.88;61.96;101311.53;4939143;29;20454;-80
2022/04/11 10:27:17;;;;;;;4.38;1.40;;;;;;;6.84;63.61;101315.53;4940027;29;20470;-80
2022/04/11 10:29:43;;;;;;;4.13;1.10;;;;;;;6.97;64.79;101340.00;4939404;29;20031;-79
2022/04/11 10:32:08;;;;;;;5.90;1.38;;;;;;;7.05;63.03;101342.72;4920170;29;20120;-79
2022/04/11 10:35:09;;;;;;;6.82;1.42;;;;;;;7.06;61.70;101339.03;4938823;29;20378;-79
2022/04/11 10:37:40;;;;;;;7.95;1.83;;;;;;;6.95;64.46;101341.13;4934861;29;20055;-80
2022/04/11 10:40:17;;;;;;;6.22;1.40;;;;;;;6.86;66.02;101344.81;4938628;29;20418;-80
2022/04/11 10:42:58;;;;;;;6.22;1.95;;;;;;;6.79;67.28;101345.44;4946916;29;20027;-79
2022/04/11 10:45:39;;;;;;;7.78;1.67;;;;;;;6.71;67.18;101336.53;4959017;28;20166;-80
2022/04/11 10:48:05;;;;;;;6.82;1.50;;;;;;;6.75;66.83;101348.59;4945234;28;20059;-80
2022/04/11 10:50:35;;;;;;;4.35;1.27;;;;;;;6.53;66.57;101332.13;4939565;29;20106;-80
2022/04/11 10:53:08;;;;;;;5.50;1.58;;;;;;;6.82;68.35;101352.28;4937231;29;20046;-80
2022/04/11 10:55:34;;;;;;;8.52;1.40;;;;;;;6.78;67.83;101350.94;4940304;29;20031;-79
2022/04/11 10:58:00;;;;;;;7.85;1.73;;;;;;;6.73;65.16;101350.59;4940773;29;20359;-79
2022/04/11 11:00:33;;;;;;;5.13;1.38;;;;;;;6.66;64.30;101360.28;4939967;29;20101;-80
2022/04/11 11:03:01;;;;;;;8.32;1.92;;;;;;;6.66;65.06;101357.59;4940609;29;20023;-80
2022/04/11 11:05:38;;;;;;;6.68;1.27;;;;;;;6.67;63.22;101361.94;4935230;28;20028;-80
2022/04/11 11:08:23;;;;;;;4.97;1.20;;;;;;;6.82;63.47;101369.22;4925776;29;20039;-79
2022/04/11 11:10:52;;;;;;;6.70;1.48;;;;;;;6.75;58.99;101367.31;4923622;29;20031;-80
2022/04/11 11:13:39;;;;;;;7.18;1.20;;;;;;;6.74;62.86;101368.31;4920584;29;20032;-80
2022/04/11 11:16:07;;;;;;;7.15;1.48;;;;;;;6.74;63.53;101362.97;4920388;29;20458;-79
2022/04/11 11:21:13;;;;;;;8.13;1.60;;;;;;;6.71;62.94;101360.63;4937735;29;20051;-80
2022/04/11 11:23:40;;;;;;;8.80;1.55;;;;;;;6.80;65.31;101373.88;4972088;28;20061;-79
2022/04/11 11:26:10;;;;;;;5.03;1.27;;;;;;;6.81;61.62;101372.03;4957787;28;20445;-79
2022/04/11 11:28:37;;;;;;;3.70;1.08;;;;;;;6.92;58.80;101354.84;4924428;29;20032;-80
2022/04/11 11:31:03;;;;;;;6.25;1.17;;;;;;;7.01;58.09;101370.75;4918120;29;20039;-80
2022/04/11 11:33:28;;;;;;;7.22;1.52;;;;;;;6.97;56.90;101381.97;4920658;29;20060;-80
2022/04/11 11:35:55;;;;;;;5.38;1.15;;;;;;;6.92;57.54;101370.91;4928299;29;20027;-80
2022/04/11 11:38:23;;;;;;;7.78;1.60;;;;;;;6.87;59.23;101381.25;4936550;29;20103;-80